createdAt,value
2018-05-27T00:00:34.439Z,5.00
2018-05-27T00:01:34.437Z,5.50
2018-05-27T00:02:34.421Z,5.00
2018-05-27T00:03:34.416Z,4.80
2018-05-27T00:04:34.543Z,4.90
2018-05-27T00:05:34.387Z,5.10
2018-05-27T00:06:34.370Z,4.40
2018-05-27T00:07:34.374Z,4.90
2018-05-27T00:08:34.344Z,4.90
2018-05-27T00:09:34.337Z,5.20
2018-05-27T00:10:34.328Z,4.60
2018-05-27T00:11:34.313Z,4.60
2018-05-27T00:12:34.309Z,4.50
2018-05-27T00:13:34.303Z,4.50
2018-05-27T00:14:34.281Z,5.40
2018-05-27T00:15:34.267Z,5.20
2018-05-27T00:16:34.261Z,5.10
2018-05-27T00:17:34.242Z,5.10
2018-05-27T00:18:34.231Z,4.60
2018-05-27T00:19:34.217Z,4.80
2018-05-27T00:20:34.211Z,5.50
2018-05-27T00:21:34.194Z,5.30
2018-05-27T00:22:34.186Z,5.20
2018-05-27T00:23:34.177Z,5.10
2018-05-27T00:24:34.160Z,5.50
2018-05-27T00:25:34.147Z,5.30
2018-05-27T00:26:34.141Z,4.90
2018-05-27T00:27:34.124Z,4.80
2018-05-27T00:28:34.169Z,5.30
2018-05-27T00:29:34.112Z,5.00
2018-05-27T00:30:34.090Z,5.70
2018-05-27T00:31:34.131Z,5.50
2018-05-27T00:32:34.071Z,5.30
2018-05-27T00:33:34.062Z,5.40
2018-05-27T00:34:34.044Z,4.80
2018-05-27T00:35:34.027Z,4.90
2018-05-27T00:36:34.020Z,5.30
2018-05-27T00:37:34.004Z,4.70
2018-05-27T00:38:33.997Z,5.60
2018-05-27T00:39:33.985Z,5.30
2018-05-27T00:40:33.970Z,5.10
2018-05-27T00:41:33.961Z,5.80
2018-05-27T00:42:33.951Z,5.30
2018-05-27T00:43:33.934Z,4.90
2018-05-27T00:44:33.947Z,5.20
2018-05-27T00:45:33.911Z,5.30
2018-05-27T00:46:33.911Z,5.00
2018-05-27T00:47:33.949Z,5.10
2018-05-27T00:48:33.881Z,5.10
2018-05-27T00:49:33.863Z,5.60
2018-05-27T00:50:33.857Z,5.10
2018-05-27T00:51:33.840Z,5.30
2018-05-27T00:52:33.831Z,5.30
2018-05-27T00:53:33.815Z,5.70
2018-05-27T00:54:33.808Z,5.80
2018-05-27T00:55:33.794Z,6.10
2018-05-27T00:56:33.780Z,5.00
2018-05-27T00:57:33.768Z,5.60
2018-05-27T00:58:33.766Z,5.80
2018-05-27T00:59:33.740Z,5.70
2018-05-27T01:00:33.880Z,6.10
2018-05-27T01:01:33.742Z,5.60
2018-05-27T01:02:33.704Z,5.60
2018-05-27T01:03:33.745Z,5.60
2018-05-27T01:04:33.687Z,5.70
2018-05-27T01:05:33.673Z,5.70
2018-05-27T01:06:33.657Z,5.70
2018-05-27T01:07:33.652Z,5.90
2018-05-27T01:08:33.738Z,5.40
2018-05-27T01:09:33.620Z,5.30
2018-05-27T01:10:33.610Z,5.00
2018-05-27T01:11:33.601Z,5.70
2018-05-27T01:12:33.585Z,6.00
2018-05-27T01:13:33.577Z,5.40
2018-05-27T01:14:33.559Z,5.50
2018-05-27T01:15:33.546Z,6.00
2018-05-27T01:16:33.533Z,5.60
2018-05-27T01:17:33.523Z,5.90
2018-05-27T01:18:33.509Z,4.80
2018-05-27T01:19:33.502Z,5.50
2018-05-27T01:20:33.490Z,5.40
2018-05-27T01:21:33.475Z,5.80
2018-05-27T01:22:33.462Z,5.70
2018-05-27T01:23:33.456Z,5.50
2018-05-27T01:24:33.639Z,5.00
2018-05-27T01:25:33.442Z,5.60
2018-05-27T01:26:33.418Z,5.40
2018-05-27T01:27:33.401Z,4.90
2018-05-27T01:28:33.402Z,5.80
2018-05-27T01:29:33.384Z,6.10
2018-05-27T01:30:33.365Z,5.60
2018-05-27T01:31:33.358Z,5.30
2018-05-27T01:32:33.343Z,5.50
2018-05-27T01:33:33.330Z,5.50
2018-05-27T01:34:33.318Z,5.20
2018-05-27T01:35:33.311Z,5.50
2018-05-27T01:36:33.292Z,6.20
2018-05-27T01:37:33.285Z,5.50
2018-05-27T01:38:33.273Z,5.40
2018-05-27T01:39:33.260Z,4.70
2018-05-27T01:40:33.355Z,5.60
2018-05-27T01:41:33.233Z,5.60
2018-05-27T01:42:33.218Z,5.90
2018-05-27T01:43:33.256Z,5.70
2018-05-27T01:44:33.199Z,5.90
2018-05-27T01:45:33.182Z,5.50
2018-05-27T01:46:33.169Z,5.50
2018-05-27T01:47:33.164Z,6.20
2018-05-27T01:48:33.150Z,6.10
2018-05-27T01:49:33.185Z,6.40
2018-05-27T01:50:33.127Z,7.00
2018-05-27T01:51:33.113Z,7.50
2018-05-27T01:52:33.097Z,6.90
2018-05-27T01:53:33.083Z,7.10
2018-05-27T01:54:33.067Z,6.20
2018-05-27T01:55:33.058Z,5.90
2018-05-27T01:56:33.149Z,5.90
2018-05-27T01:57:33.032Z,5.60
2018-05-27T01:58:33.016Z,5.90
2018-05-27T01:59:33.008Z,5.50
2018-05-27T02:00:32.990Z,5.50
2018-05-27T02:01:32.979Z,5.50
2018-05-27T02:02:32.967Z,5.90
2018-05-27T02:03:32.962Z,5.80
2018-05-27T02:04:32.946Z,5.70
2018-05-27T02:05:32.929Z,5.30
2018-05-27T02:06:32.918Z,5.90
2018-05-27T02:07:32.906Z,5.80
2018-05-27T02:08:32.890Z,5.40
2018-05-27T02:09:32.881Z,5.50
2018-05-27T02:10:32.866Z,5.30
2018-05-27T02:11:32.857Z,6.30
2018-05-27T02:12:32.839Z,6.20
2018-05-27T02:13:32.828Z,6.00
2018-05-27T02:14:32.829Z,6.60
2018-05-27T02:15:32.806Z,6.20
2018-05-27T02:16:32.789Z,6.40
2018-05-27T02:17:32.792Z,6.30
2018-05-27T02:18:32.773Z,7.00
2018-05-27T02:19:32.757Z,6.90
2018-05-27T02:20:32.792Z,6.90
2018-05-27T02:21:32.735Z,6.60
2018-05-27T02:22:32.717Z,6.60
2018-05-27T02:23:32.705Z,6.00
2018-05-27T02:24:32.689Z,7.00
2018-05-27T02:25:32.679Z,5.80
2018-05-27T02:26:32.666Z,5.80
2018-05-27T02:27:32.654Z,5.70
2018-05-27T02:28:32.637Z,5.60
2018-05-27T02:29:32.629Z,5.40
2018-05-27T02:30:32.618Z,6.00
2018-05-27T02:31:32.606Z,5.30
2018-05-27T02:32:32.589Z,5.50
2018-05-27T02:33:32.598Z,5.90
2018-05-27T02:34:32.572Z,5.80
2018-05-27T02:35:32.550Z,5.70
2018-05-27T02:36:32.593Z,5.80
2018-05-27T02:37:32.526Z,5.80
2018-05-27T02:38:32.510Z,5.60
2018-05-27T02:39:32.505Z,5.20
2018-05-27T02:40:32.487Z,5.20
2018-05-27T02:41:32.478Z,4.60
2018-05-27T02:42:32.461Z,4.90
2018-05-27T02:43:32.450Z,5.20
2018-05-27T02:44:32.440Z,5.10
2018-05-27T02:45:32.426Z,5.10
2018-05-27T02:46:32.416Z,5.10
2018-05-27T02:47:32.400Z,5.20
2018-05-27T02:48:32.396Z,5.50
2018-05-27T02:49:32.417Z,5.40
2018-05-27T02:50:32.360Z,5.00
2018-05-27T02:51:32.361Z,5.00
2018-05-27T02:52:32.337Z,4.60
2018-05-27T02:53:32.329Z,4.60
2018-05-27T02:54:32.318Z,5.20
2018-05-27T02:55:32.297Z,5.80
2018-05-27T02:56:32.286Z,5.90
2018-05-27T02:57:32.276Z,5.20
2018-05-27T02:58:32.261Z,5.40
2018-05-27T02:59:32.249Z,5.10
2018-05-27T03:00:32.236Z,6.10
2018-05-27T03:01:32.223Z,5.50
2018-05-27T03:02:32.212Z,5.90
2018-05-27T03:03:32.203Z,5.30
2018-05-27T03:04:32.187Z,5.60
2018-05-27T03:05:32.175Z,5.60
2018-05-27T03:06:32.164Z,5.90
2018-05-27T03:07:32.148Z,6.00
2018-05-27T03:08:32.140Z,6.20
2018-05-27T03:09:32.123Z,6.50
2018-05-27T03:10:32.238Z,7.40
2018-05-27T03:11:32.099Z,6.70
2018-05-27T03:12:32.084Z,5.70
2018-05-27T03:13:32.072Z,5.60
2018-05-27T03:14:32.062Z,6.00
2018-05-27T03:15:32.053Z,5.90
2018-05-27T03:16:32.037Z,6.20
2018-05-27T03:17:32.021Z,5.60
2018-05-27T03:18:32.011Z,5.40
2018-05-27T03:19:32.003Z,5.40
2018-05-27T03:20:31.981Z,5.90
2018-05-27T03:21:31.970Z,6.40
2018-05-27T03:22:31.960Z,5.50
2018-05-27T03:23:31.949Z,6.10
2018-05-27T03:24:31.931Z,6.40
2018-05-27T03:25:31.924Z,7.40
2018-05-27T03:26:31.905Z,7.00
2018-05-27T03:27:31.890Z,6.80
2018-05-27T03:28:31.879Z,7.30
2018-05-27T03:29:31.973Z,7.00
2018-05-27T03:30:31.852Z,7.60
2018-05-27T03:31:31.842Z,7.60
2018-05-27T03:32:31.878Z,7.80
2018-05-27T03:33:31.814Z,7.00
2018-05-27T03:34:31.801Z,7.20
2018-05-27T03:35:31.791Z,7.40
2018-05-27T03:36:31.775Z,7.50
2018-05-27T03:37:31.767Z,6.90
2018-05-27T03:38:31.751Z,8.00
2018-05-27T03:39:31.737Z,6.60
2018-05-27T03:40:31.727Z,6.60
2018-05-27T03:41:31.711Z,6.60
2018-05-27T03:42:31.699Z,6.00
2018-05-27T03:43:31.695Z,6.80
2018-05-27T03:44:31.681Z,6.50
2018-05-27T03:45:31.664Z,6.60
2018-05-27T03:46:31.648Z,6.10
2018-05-27T03:47:31.634Z,7.00
2018-05-27T03:48:31.675Z,6.80
2018-05-27T03:49:31.613Z,7.00
2018-05-27T03:50:31.601Z,6.40
2018-05-27T03:51:31.583Z,7.00
2018-05-27T03:52:31.577Z,7.80
2018-05-27T03:53:31.562Z,7.40
2018-05-27T03:54:31.546Z,6.50
2018-05-27T03:55:31.531Z,6.90
2018-05-27T03:56:31.522Z,7.40
2018-05-27T03:57:31.507Z,7.30
2018-05-27T03:58:31.490Z,7.00
2018-05-27T03:59:31.481Z,7.00
2018-05-27T04:00:31.471Z,7.20
2018-05-27T04:01:31.457Z,7.40
2018-05-27T04:02:31.445Z,7.60
2018-05-27T04:03:31.432Z,7.70
2018-05-27T04:04:31.416Z,7.70
2018-05-27T04:05:31.413Z,7.10
2018-05-27T04:06:31.391Z,7.80
2018-05-27T04:07:31.378Z,7.00
2018-05-27T04:08:31.372Z,6.70
2018-05-27T04:09:31.407Z,7.10
2018-05-27T04:10:31.339Z,6.70
2018-05-27T04:11:31.325Z,6.60
2018-05-27T04:12:31.311Z,7.10
2018-05-27T04:13:31.298Z,7.40
2018-05-27T04:14:31.285Z,7.40
2018-05-27T04:15:31.271Z,7.40
2018-05-27T04:16:31.260Z,7.10
2018-05-27T04:17:31.244Z,7.00
2018-05-27T04:18:31.237Z,7.40
2018-05-27T04:19:31.230Z,6.90
2018-05-27T04:20:31.204Z,7.70
2018-05-27T04:21:31.194Z,7.00
2018-05-27T04:22:31.182Z,7.10
2018-05-27T04:23:31.171Z,7.50
2018-05-27T04:24:31.159Z,7.50
2018-05-27T04:25:31.148Z,7.50
2018-05-27T04:26:31.131Z,7.40
2018-05-27T04:27:31.115Z,6.50
2018-05-27T04:28:31.243Z,6.50
2018-05-27T04:29:31.091Z,6.80
2018-05-27T04:30:31.076Z,6.60
2018-05-27T04:31:31.062Z,6.40
2018-05-27T04:32:31.048Z,6.90
2018-05-27T04:33:31.040Z,6.00
2018-05-27T04:34:31.031Z,6.20
2018-05-27T04:35:31.014Z,6.60
2018-05-27T04:36:31.042Z,6.10
2018-05-27T04:37:30.986Z,6.00
2018-05-27T04:38:30.974Z,7.10
2018-05-27T04:39:30.960Z,6.90
2018-05-27T04:40:30.947Z,6.60
2018-05-27T04:41:30.937Z,7.40
2018-05-27T04:42:30.919Z,7.70
2018-05-27T04:43:30.909Z,7.50
2018-05-27T04:44:30.944Z,7.20
2018-05-27T04:45:30.898Z,8.10
2018-05-27T04:46:30.866Z,8.00
2018-05-27T04:47:30.858Z,7.90
2018-05-27T04:48:30.838Z,7.80
2018-05-27T04:49:30.843Z,7.20
2018-05-27T04:50:30.815Z,8.00
2018-05-27T04:51:30.802Z,7.30
2018-05-27T04:52:30.838Z,7.30
2018-05-27T04:53:30.776Z,7.10
2018-05-27T04:54:30.762Z,6.60
2018-05-27T04:55:30.747Z,6.70
2018-05-27T04:56:30.733Z,6.30
2018-05-27T04:57:30.720Z,6.70
2018-05-27T04:58:30.710Z,6.00
2018-05-27T04:59:30.701Z,6.30
2018-05-27T05:00:30.681Z,6.30
2018-05-27T05:01:30.669Z,5.90
2018-05-27T05:02:30.656Z,6.10
2018-05-27T05:03:30.645Z,6.70
2018-05-27T05:04:30.627Z,6.20
2018-05-27T05:05:30.624Z,6.00
2018-05-27T05:06:30.600Z,6.70
2018-05-27T05:07:30.588Z,6.10
2018-05-27T05:08:30.634Z,6.30
2018-05-27T05:09:30.596Z,6.40
2018-05-27T05:10:30.550Z,5.80
2018-05-27T05:11:30.536Z,6.90
2018-05-27T05:12:30.523Z,6.40
2018-05-27T05:13:30.508Z,6.00
2018-05-27T05:14:30.491Z,6.20
2018-05-27T05:15:30.480Z,6.40
2018-05-27T05:16:30.476Z,6.40
2018-05-27T05:17:30.461Z,5.80
2018-05-27T05:18:30.442Z,6.20
2018-05-27T05:19:30.427Z,5.90
2018-05-27T05:20:30.420Z,6.80
2018-05-27T05:21:30.909Z,6.00
2018-05-27T05:22:30.387Z,6.40
2018-05-27T05:23:30.391Z,6.50
2018-05-27T05:24:30.384Z,6.10
2018-05-27T05:25:30.352Z,6.10
2018-05-27T05:26:30.335Z,6.10
2018-05-27T05:27:30.325Z,6.10
2018-05-27T05:28:30.318Z,6.50
2018-05-27T05:29:30.298Z,6.40
2018-05-27T05:30:30.290Z,6.80
2018-05-27T05:31:30.273Z,6.40
2018-05-27T05:32:30.259Z,6.00
2018-05-27T05:33:30.254Z,5.90
2018-05-27T05:34:30.235Z,7.00
2018-05-27T05:35:30.216Z,6.40
2018-05-27T05:36:30.202Z,6.30
2018-05-27T05:37:30.191Z,6.60
2018-05-27T05:38:30.177Z,6.20
2018-05-27T05:39:30.167Z,5.90
2018-05-27T05:40:30.151Z,6.20
2018-05-27T05:41:30.137Z,6.40
2018-05-27T05:42:30.129Z,7.10
2018-05-27T05:43:30.113Z,6.30
2018-05-27T05:44:30.098Z,6.70
2018-05-27T05:45:30.099Z,6.10
2018-05-27T05:46:30.073Z,6.60
2018-05-27T05:47:30.061Z,6.50
2018-05-27T05:48:30.050Z,6.50
2018-05-27T05:49:30.034Z,7.00
2018-05-27T05:50:30.021Z,6.80
2018-05-27T05:51:30.012Z,6.10
2018-05-27T05:52:29.996Z,6.50
2018-05-27T05:53:29.981Z,6.70
2018-05-27T05:54:30.018Z,6.70
2018-05-27T05:55:29.962Z,6.40
2018-05-27T05:56:29.948Z,6.70
2018-05-27T05:57:29.932Z,6.10
2018-05-27T05:58:29.921Z,6.80
2018-05-27T05:59:29.907Z,6.90
2018-05-27T06:00:29.896Z,7.40
2018-05-27T06:01:29.881Z,7.10
2018-05-27T06:02:29.869Z,7.30
2018-05-27T06:03:29.866Z,6.60
2018-05-27T06:04:29.856Z,6.40
2018-05-27T06:05:29.829Z,6.90
2018-05-27T06:06:29.812Z,6.90
2018-05-27T06:07:29.806Z,6.40
2018-05-27T06:08:29.794Z,6.70
2018-05-27T06:09:29.775Z,6.70
2018-05-27T06:10:29.762Z,6.70
2018-05-27T06:11:29.751Z,6.30
2018-05-27T06:12:29.736Z,7.00
2018-05-27T06:13:29.759Z,7.20
2018-05-27T06:14:29.711Z,6.70
2018-05-27T06:15:29.700Z,6.60
2018-05-27T06:16:29.692Z,6.80
2018-05-27T06:17:29.672Z,6.70
2018-05-27T06:18:29.663Z,6.60
2018-05-27T06:19:29.646Z,7.00
2018-05-27T06:20:29.682Z,7.10
2018-05-27T06:21:29.624Z,6.50
2018-05-27T06:22:29.612Z,6.80
2018-05-27T06:23:29.593Z,6.40
2018-05-27T06:24:29.584Z,7.30
2018-05-27T06:25:29.569Z,6.40
2018-05-27T06:26:29.562Z,7.00
2018-05-27T06:27:29.544Z,6.20
2018-05-27T06:28:29.531Z,7.30
2018-05-27T06:29:29.521Z,6.80
2018-05-27T06:30:29.502Z,7.30
2018-05-27T06:31:29.494Z,7.60
2018-05-27T06:32:29.477Z,6.50
2018-05-27T06:33:29.466Z,6.40
2018-05-27T06:34:29.451Z,7.10
2018-05-27T06:35:29.445Z,7.00
2018-05-27T06:36:29.424Z,6.60
2018-05-27T06:37:29.413Z,6.90
2018-05-27T06:38:29.404Z,7.50
2018-05-27T06:39:29.386Z,6.80
2018-05-27T06:40:29.381Z,7.80
2018-05-27T06:41:29.516Z,6.40
2018-05-27T06:42:29.352Z,6.60
2018-05-27T06:43:29.337Z,6.80
2018-05-27T06:44:29.322Z,6.50
2018-05-27T06:45:29.312Z,6.80
2018-05-27T06:46:29.307Z,6.30
2018-05-27T06:47:29.292Z,6.20
2018-05-27T06:48:29.288Z,5.50
2018-05-27T06:49:29.263Z,6.70
2018-05-27T06:50:29.247Z,7.30
2018-05-27T06:51:29.239Z,7.50
2018-05-27T06:52:29.220Z,6.30
2018-05-27T06:53:29.208Z,6.50
2018-05-27T06:54:29.195Z,7.20
2018-05-27T06:55:29.188Z,7.00
2018-05-27T06:56:29.171Z,6.60
2018-05-27T06:57:29.163Z,7.00
2018-05-27T06:58:29.149Z,7.00
2018-05-27T06:59:29.132Z,7.40
2018-05-27T07:00:29.148Z,6.60
2018-05-27T07:01:29.117Z,6.50
2018-05-27T07:02:29.099Z,7.10
2018-05-27T07:03:29.104Z,6.90
2018-05-27T07:04:29.110Z,6.90
2018-05-27T07:05:29.062Z,6.40
2018-05-27T07:06:29.049Z,6.80
2018-05-27T07:07:29.038Z,6.40
2018-05-27T07:08:29.032Z,6.50
2018-05-27T07:09:29.012Z,7.10
2018-05-27T07:10:29.012Z,6.70
2018-05-27T07:11:28.994Z,6.70
2018-05-27T07:12:28.974Z,7.30
2018-05-27T07:13:28.959Z,7.40
2018-05-27T07:14:28.968Z,7.60
2018-05-27T07:15:28.934Z,6.90
2018-05-27T07:16:28.921Z,7.80
2018-05-27T07:17:28.911Z,7.10
2018-05-27T07:18:28.896Z,7.00
2018-05-27T07:19:28.889Z,7.00
2018-05-27T07:20:28.871Z,7.50
2018-05-27T07:21:28.861Z,7.70
2018-05-27T07:22:28.847Z,7.60
2018-05-27T07:23:28.848Z,7.10
2018-05-27T07:24:28.828Z,7.30
2018-05-27T07:25:28.811Z,7.40
2018-05-27T07:26:28.801Z,6.80
2018-05-27T07:27:28.792Z,6.80
2018-05-27T07:28:28.778Z,7.00
2018-05-27T07:29:28.771Z,6.80
2018-05-27T07:30:28.755Z,6.80
2018-05-27T07:31:28.740Z,6.80
2018-05-27T07:32:28.730Z,6.80
2018-05-27T07:33:28.712Z,7.20
2018-05-27T07:34:28.760Z,6.90
2018-05-27T07:35:28.689Z,6.50
2018-05-27T07:36:28.682Z,7.40
2018-05-27T07:37:28.672Z,7.30
2018-05-27T07:38:28.657Z,7.30
2018-05-27T07:39:28.642Z,7.00
2018-05-27T07:40:28.631Z,6.80
2018-05-27T07:41:28.618Z,7.40
2018-05-27T07:42:28.612Z,6.20
2018-05-27T07:43:28.598Z,7.10
2018-05-27T07:44:28.606Z,7.60
2018-05-27T07:45:28.581Z,6.60
2018-05-27T07:46:28.561Z,7.20
2018-05-27T07:47:28.548Z,6.50
2018-05-27T07:48:28.541Z,6.60
2018-05-27T07:49:28.535Z,6.90
2018-05-27T07:50:28.515Z,7.40
2018-05-27T07:51:28.501Z,7.30
2018-05-27T07:52:28.510Z,6.50
2018-05-27T07:53:28.480Z,7.00
2018-05-27T07:54:28.470Z,6.20
2018-05-27T07:55:28.459Z,6.70
2018-05-27T07:56:28.447Z,6.90
2018-05-27T07:57:28.435Z,6.70
2018-05-27T07:58:28.559Z,6.70
2018-05-27T07:59:28.414Z,6.30
2018-05-27T08:00:28.400Z,6.50
2018-05-27T08:01:28.388Z,6.70
2018-05-27T08:02:28.385Z,6.10
2018-05-27T08:03:28.377Z,6.60
2018-05-27T08:04:28.360Z,6.30
2018-05-27T08:05:28.343Z,5.70
2018-05-27T08:06:28.331Z,6.30
2018-05-27T08:07:28.321Z,7.00
2018-05-27T08:08:28.309Z,6.70
2018-05-27T08:09:28.451Z,6.70
2018-05-27T08:10:28.287Z,6.40
2018-05-27T08:11:28.286Z,6.10
2018-05-27T08:12:28.322Z,6.00
2018-05-27T08:13:28.254Z,7.30
2018-05-27T08:14:28.240Z,6.30
2018-05-27T08:15:28.231Z,6.40
2018-05-27T08:16:28.231Z,6.60
2018-05-27T08:17:28.217Z,6.40
2018-05-27T08:18:28.204Z,6.40
2018-05-27T08:19:28.195Z,6.00
2018-05-27T08:20:28.176Z,6.60
2018-05-27T08:21:28.168Z,6.40
2018-05-27T08:22:28.152Z,6.30
2018-05-27T08:23:28.160Z,6.70
2018-05-27T08:24:28.136Z,6.40
2018-05-27T08:25:28.129Z,6.00
2018-05-27T08:26:28.108Z,6.70
2018-05-27T08:27:28.098Z,5.80
2018-05-27T08:28:28.094Z,6.30
2018-05-27T08:29:28.087Z,5.80
2018-05-27T08:30:28.077Z,6.10
2018-05-27T08:31:28.058Z,6.60
2018-05-27T08:32:28.041Z,5.70
2018-05-27T08:33:28.098Z,6.60
2018-05-27T08:34:28.022Z,6.30
2018-05-27T08:35:28.023Z,5.10
2018-05-27T08:36:28.002Z,5.70
2018-05-27T08:37:28.004Z,6.00
2018-05-27T08:38:27.981Z,6.00
2018-05-27T08:39:27.972Z,6.50
2018-05-27T08:40:27.963Z,6.10
2018-05-27T08:41:27.946Z,6.30
2018-05-27T08:42:27.936Z,6.10
2018-05-27T08:43:27.970Z,6.00
2018-05-27T08:44:27.913Z,6.30
2018-05-27T08:45:27.910Z,5.70
2018-05-27T08:46:27.890Z,6.00
2018-05-27T08:47:27.906Z,5.90
2018-05-27T08:48:27.871Z,5.90
2018-05-27T08:49:27.862Z,6.30
2018-05-27T08:50:27.854Z,5.90
2018-05-27T08:51:27.859Z,5.90
2018-05-27T08:52:27.833Z,5.60
2018-05-27T08:53:27.882Z,5.80
2018-05-27T08:54:27.812Z,5.90
2018-05-27T08:55:27.799Z,6.10
2018-05-27T08:56:27.797Z,5.70
2018-05-27T08:57:27.775Z,6.70
2018-05-27T08:58:27.765Z,6.60
2018-05-27T08:59:27.758Z,6.10
2018-05-27T09:00:27.745Z,5.70
2018-05-27T09:01:27.745Z,6.10
2018-05-27T09:02:27.727Z,5.80
2018-05-27T09:03:27.722Z,6.30
2018-05-27T09:04:27.701Z,5.30
2018-05-27T09:05:27.694Z,5.70
2018-05-27T09:06:27.681Z,5.90
2018-05-27T09:07:27.675Z,5.70
2018-05-27T09:08:27.662Z,5.50
2018-05-27T09:09:27.652Z,5.60
2018-05-27T09:10:27.639Z,6.00
2018-05-27T09:11:27.628Z,6.10
2018-05-27T09:12:27.621Z,5.60
2018-05-27T09:13:27.608Z,6.10
2018-05-27T09:14:27.609Z,5.80
2018-05-27T09:15:27.592Z,6.10
2018-05-27T09:16:27.589Z,6.00
2018-05-27T09:17:27.578Z,6.40
2018-05-27T09:18:27.566Z,6.60
2018-05-27T09:19:27.550Z,6.60
2018-05-27T09:20:27.536Z,6.90
2018-05-27T09:21:27.535Z,6.10
2018-05-27T09:22:27.524Z,6.70
2018-05-27T09:23:27.513Z,6.60
2018-05-27T09:24:27.511Z,6.70
2018-05-27T09:25:27.495Z,6.60
2018-05-27T09:26:27.482Z,6.40
2018-05-27T09:27:27.467Z,6.20
2018-05-27T09:28:27.454Z,5.90
2018-05-27T09:29:27.446Z,6.40
2018-05-27T09:30:27.434Z,5.90
2018-05-27T09:31:27.427Z,5.90
2018-05-27T09:32:27.419Z,6.20
2018-05-27T09:33:27.413Z,6.50
2018-05-27T09:34:27.394Z,6.20
2018-05-27T09:35:27.394Z,6.10
2018-05-27T09:36:27.375Z,6.00
2018-05-27T09:37:27.372Z,6.50
2018-05-27T09:38:27.357Z,6.30
2018-05-27T09:39:27.426Z,5.80
2018-05-27T09:40:27.338Z,6.40
2018-05-27T09:41:27.331Z,7.20
2018-05-27T09:42:27.315Z,6.90
2018-05-27T09:43:27.308Z,6.50
2018-05-27T09:44:27.305Z,6.40
2018-05-27T09:45:27.337Z,6.50
2018-05-27T09:46:27.280Z,6.80
2018-05-27T09:47:27.269Z,6.50
2018-05-27T09:48:27.265Z,6.70
2018-05-27T09:49:27.252Z,7.20
2018-05-27T09:50:27.237Z,7.20
2018-05-27T09:51:27.277Z,6.90
2018-05-27T09:52:27.217Z,7.40
2018-05-27T09:53:27.221Z,6.40
2018-05-27T09:54:27.198Z,6.70
2018-05-27T09:55:27.241Z,6.50
2018-05-27T09:56:27.182Z,6.50
2018-05-27T09:57:27.168Z,5.90
2018-05-27T09:58:27.223Z,7.00
2018-05-27T09:59:27.151Z,6.90
2018-05-27T10:00:27.141Z,6.60
2018-05-27T10:01:27.139Z,6.40
2018-05-27T10:02:27.122Z,7.20
2018-05-27T10:03:27.110Z,6.90
2018-05-27T10:04:27.116Z,7.10
2018-05-27T10:05:27.094Z,7.40
2018-05-27T10:06:27.086Z,7.40
2018-05-27T10:07:27.071Z,7.10
2018-05-27T10:08:27.061Z,7.20
2018-05-27T10:09:27.056Z,6.50
2018-05-27T10:10:27.057Z,7.00
2018-05-27T10:11:27.152Z,6.90
2018-05-27T10:12:27.043Z,6.60
2018-05-27T10:13:27.018Z,6.70
2018-05-27T10:14:27.016Z,6.30
2018-05-27T10:15:27.011Z,6.20
2018-05-27T10:16:27.106Z,6.20
2018-05-27T10:17:26.978Z,6.00
2018-05-27T10:18:26.978Z,6.10
2018-05-27T10:19:27.021Z,6.40
2018-05-27T10:20:26.952Z,6.00
2018-05-27T10:21:26.937Z,6.10
2018-05-27T10:22:26.932Z,6.50
2018-05-27T10:23:26.930Z,6.60
2018-05-27T10:24:26.910Z,6.00
2018-05-27T10:25:26.902Z,5.60
2018-05-27T10:26:26.894Z,6.00
2018-05-27T10:27:26.882Z,7.10
2018-05-27T10:28:26.880Z,6.60
2018-05-27T10:29:26.861Z,6.40
2018-05-27T10:30:26.855Z,6.40
2018-05-27T10:31:26.848Z,5.80
2018-05-27T10:32:26.940Z,5.80
2018-05-27T10:33:26.827Z,6.60
2018-05-27T10:34:26.820Z,6.30
2018-05-27T10:35:26.805Z,6.30
2018-05-27T10:36:26.801Z,6.40
2018-05-27T10:37:26.796Z,6.10
2018-05-27T10:38:26.787Z,5.90
2018-05-27T10:39:26.767Z,5.90
2018-05-27T10:40:26.756Z,6.00
2018-05-27T10:41:26.754Z,5.90
2018-05-27T10:42:26.740Z,6.30
2018-05-27T10:43:26.731Z,6.20
2018-05-27T10:44:26.727Z,5.80
2018-05-27T10:45:26.714Z,5.70
2018-05-27T10:46:26.706Z,6.10
2018-05-27T10:47:26.753Z,6.30
2018-05-27T10:48:26.686Z,6.60
2018-05-27T10:49:26.675Z,6.30
2018-05-27T10:50:26.667Z,6.50
2018-05-27T10:51:26.665Z,6.10
2018-05-27T10:52:26.661Z,6.00
2018-05-27T10:53:26.641Z,5.90
2018-05-27T10:54:26.625Z,5.40
2018-05-27T10:55:26.624Z,5.90
2018-05-27T10:56:26.620Z,5.50
2018-05-27T10:57:26.603Z,6.10
2018-05-27T10:58:26.597Z,5.40
2018-05-27T10:59:26.583Z,6.00
2018-05-27T11:00:26.580Z,6.60
2018-05-27T11:01:26.585Z,6.00
2018-05-27T11:02:26.567Z,5.80
2018-05-27T11:03:26.560Z,6.10
2018-05-27T11:04:26.593Z,6.10
2018-05-27T11:05:26.532Z,6.10
2018-05-27T11:06:26.520Z,6.00
2018-05-27T11:07:26.515Z,5.90
2018-05-27T11:08:26.501Z,6.90
2018-05-27T11:09:26.497Z,6.00
2018-05-27T11:10:26.488Z,6.20
2018-05-27T11:11:26.482Z,6.50
2018-05-27T11:12:26.470Z,6.40
2018-05-27T11:13:26.471Z,6.00
2018-05-27T11:14:26.449Z,6.40
2018-05-27T11:15:26.444Z,5.30
2018-05-27T11:16:26.432Z,5.60
2018-05-27T11:17:26.426Z,5.50
2018-05-27T11:18:26.417Z,5.50
2018-05-27T11:19:26.401Z,5.60
2018-05-27T11:20:26.391Z,6.00
2018-05-27T11:21:26.391Z,6.20
2018-05-27T11:22:26.421Z,5.50
2018-05-27T11:23:26.368Z,5.70
2018-05-27T11:24:26.360Z,5.50
2018-05-27T11:25:26.353Z,5.80
2018-05-27T11:26:26.338Z,6.00
2018-05-27T11:27:26.334Z,5.40
2018-05-27T11:28:26.327Z,5.80
2018-05-27T11:29:26.314Z,6.30
2018-05-27T11:30:26.312Z,5.40
2018-05-27T11:31:26.300Z,5.30
2018-05-27T11:32:26.288Z,6.50
2018-05-27T11:33:26.278Z,6.10
2018-05-27T11:34:26.269Z,6.50
2018-05-27T11:35:26.259Z,5.90
2018-05-27T11:36:26.257Z,5.90
2018-05-27T11:37:26.248Z,6.30
2018-05-27T11:38:26.236Z,5.80
2018-05-27T11:39:26.228Z,6.00
2018-05-27T11:40:26.218Z,5.80
2018-05-27T11:41:26.206Z,6.50
2018-05-27T11:42:26.243Z,6.80
2018-05-27T11:43:26.193Z,6.00
2018-05-27T11:44:26.192Z,6.10
2018-05-27T11:45:26.177Z,5.90
2018-05-27T11:46:26.169Z,6.10
2018-05-27T11:47:26.161Z,5.20
2018-05-27T11:48:26.154Z,5.70
2018-05-27T11:49:26.143Z,5.50
2018-05-27T11:50:26.131Z,5.60
2018-05-27T11:51:26.121Z,6.00
2018-05-27T11:52:26.114Z,5.90
2018-05-27T11:53:26.104Z,6.40
2018-05-27T11:54:26.214Z,6.10
2018-05-27T11:55:26.091Z,6.00
2018-05-27T11:56:26.081Z,5.70
2018-05-27T11:57:26.069Z,5.40
2018-05-27T11:58:26.059Z,5.80
2018-05-27T11:59:26.073Z,5.70
2018-05-27T12:00:26.060Z,6.00
2018-05-27T12:01:26.045Z,6.20
2018-05-27T12:02:26.023Z,6.00
2018-05-27T12:03:26.034Z,6.20
2018-05-27T12:04:26.012Z,6.20
2018-05-27T12:05:26.011Z,6.30
2018-05-27T12:06:26.002Z,6.10
2018-05-27T12:07:25.979Z,6.40
2018-05-27T12:08:25.983Z,6.50
2018-05-27T12:09:26.136Z,6.20
2018-05-27T12:10:25.963Z,6.10
2018-05-27T12:11:25.946Z,6.50
2018-05-27T12:12:26.066Z,6.40
2018-05-27T12:13:25.941Z,6.40
2018-05-27T12:14:25.922Z,6.70
2018-05-27T12:15:25.918Z,6.40
2018-05-27T12:16:25.901Z,6.40
2018-05-27T12:17:25.894Z,5.90
2018-05-27T12:18:25.884Z,6.10
2018-05-27T12:19:25.877Z,6.60
2018-05-27T12:20:25.868Z,6.20
2018-05-27T12:21:25.861Z,6.30
2018-05-27T12:22:25.852Z,5.80
2018-05-27T12:23:25.846Z,6.20
2018-05-27T12:24:25.831Z,6.20
2018-05-27T12:25:25.821Z,5.80
2018-05-27T12:26:25.813Z,5.90
2018-05-27T12:27:25.804Z,6.10
2018-05-27T12:28:25.855Z,6.20
2018-05-27T12:29:25.789Z,5.80
2018-05-27T12:30:25.781Z,5.50
2018-05-27T12:31:25.770Z,5.90
2018-05-27T12:32:25.765Z,6.30
2018-05-27T12:33:25.749Z,6.40
2018-05-27T12:34:25.741Z,6.30
2018-05-27T12:35:25.741Z,6.10
2018-05-27T12:36:25.724Z,6.30
2018-05-27T12:37:25.725Z,6.30
2018-05-27T12:38:25.710Z,6.30
2018-05-27T12:39:25.704Z,6.90
2018-05-27T12:40:25.694Z,5.50
2018-05-27T12:41:25.680Z,5.70
2018-05-27T12:42:25.674Z,6.50
2018-05-27T12:43:25.673Z,6.30
2018-05-27T12:44:25.806Z,6.30
2018-05-27T12:45:25.650Z,6.30
2018-05-27T12:46:25.643Z,6.50
2018-05-27T12:47:25.631Z,6.40
2018-05-27T12:48:25.622Z,5.90
2018-05-27T12:49:25.611Z,6.10
2018-05-27T12:50:25.608Z,6.10
2018-05-27T12:51:25.593Z,6.10
2018-05-27T12:52:25.585Z,6.40
2018-05-27T12:53:25.581Z,6.00
2018-05-27T12:54:25.573Z,5.70
2018-05-27T12:55:25.562Z,5.40
2018-05-27T12:56:25.548Z,5.60
2018-05-27T12:57:25.552Z,5.70
2018-05-27T12:58:25.533Z,5.80
2018-05-27T12:59:25.540Z,5.80
2018-05-27T13:00:25.519Z,6.30
2018-05-27T13:01:25.516Z,6.20
2018-05-27T13:02:25.496Z,6.00
2018-05-27T13:03:25.491Z,6.10
2018-05-27T13:04:25.479Z,5.40
2018-05-27T13:05:25.472Z,5.50
2018-05-27T13:06:25.462Z,5.60
2018-05-27T13:07:25.462Z,5.60
2018-05-27T13:08:25.447Z,5.70
2018-05-27T13:09:25.436Z,5.80
2018-05-27T13:10:25.430Z,5.30
2018-05-27T13:11:25.419Z,5.30
2018-05-27T13:12:25.411Z,5.80
2018-05-27T13:13:25.403Z,5.30
2018-05-27T13:14:25.395Z,5.90
2018-05-27T13:15:25.388Z,6.10
2018-05-27T13:16:25.560Z,6.30
2018-05-27T13:17:25.373Z,5.50
2018-05-27T13:18:25.361Z,5.50